createdAt,value
2019-03-06T00:03:10.306Z,6.35
2019-03-06T00:07:15.581Z,6.27
2019-03-06T00:15:58.622Z,6.30
2019-03-06T00:20:03.859Z,6.32
2019-03-06T00:24:09.165Z,6.34
2019-03-06T00:28:14.360Z,6.44
2019-03-06T00:32:19.435Z,6.44
2019-03-06T00:45:01.738Z,6.30
2019-03-06T00:49:26.002Z,6.33
2019-03-06T00:53:52.005Z,6.36
2019-03-06T00:57:57.157Z,6.32
2019-03-06T01:02:03.184Z,6.26
2019-03-06T01:06:08.601Z,6.25
2019-03-06T01:10:13.963Z,6.23
2019-03-06T01:14:19.219Z,6.17
2019-03-06T01:18:44.768Z,6.23
2019-03-06T01:22:50.432Z,6.26
2019-03-06T01:26:55.730Z,6.33
2019-03-06T01:31:00.855Z,6.30
2019-03-06T01:35:25.442Z,6.38
2019-03-06T01:39:49.652Z,6.39
2019-03-06T01:43:58.700Z,6.39
2019-03-06T01:48:03.938Z,6.44
2019-03-06T01:52:09.338Z,6.51
2019-03-06T01:56:14.580Z,6.51
2019-03-06T02:00:19.792Z,6.63
2019-03-06T02:04:25.117Z,6.66
2019-03-06T02:08:30.261Z,6.65
2019-03-06T02:12:35.560Z,6.59
2019-03-06T02:16:40.722Z,6.60
2019-03-06T02:20:51.902Z,6.59
2019-03-06T02:24:57.185Z,6.53
2019-03-06T02:29:02.333Z,6.64
2019-03-06T02:33:07.414Z,6.61
2019-03-06T02:37:12.687Z,6.60
2019-03-06T02:41:17.835Z,6.61
2019-03-06T02:45:23.137Z,6.58
2019-03-06T02:49:28.466Z,6.55
2019-03-06T02:53:33.588Z,6.51
2019-03-06T03:02:27.807Z,6.43
2019-03-06T03:06:55.592Z,6.49
2019-03-06T03:15:37.649Z,6.46
2019-03-06T03:19:43.157Z,6.34
2019-03-06T03:23:48.207Z,6.39
2019-03-06T03:27:53.362Z,6.35
2019-03-06T03:31:58.499Z,6.29
2019-03-06T03:36:03.646Z,6.36
2019-03-06T03:49:02.084Z,6.39
2019-03-06T03:53:07.416Z,6.38
2019-03-06T03:57:12.540Z,6.41
2019-03-06T04:01:17.618Z,6.38
2019-03-06T04:05:22.815Z,6.38
2019-03-06T04:09:28.225Z,6.44
2019-03-06T04:13:33.574Z,6.40
2019-03-06T04:17:38.710Z,6.46
2019-03-06T04:21:43.814Z,6.45
2019-03-06T04:25:48.898Z,6.51
2019-03-06T04:29:56.059Z,6.60
2019-03-06T04:34:01.299Z,6.70
2019-03-06T04:38:06.372Z,6.70
2019-03-06T04:42:11.542Z,6.66
2019-03-06T04:46:16.616Z,6.63
2019-03-06T04:50:21.997Z,6.67
2019-03-06T04:54:27.140Z,6.74
2019-03-06T04:58:32.515Z,6.79
2019-03-06T05:06:54.671Z,6.90
2019-03-06T05:15:29.356Z,6.98
2019-03-06T05:19:34.552Z,6.98
2019-03-06T05:24:00.625Z,6.97
2019-03-06T05:28:05.729Z,6.95
2019-03-06T05:32:50.519Z,6.92
2019-03-06T05:37:33.756Z,6.94
2019-03-06T05:41:57.933Z,6.92
2019-03-06T05:46:03.144Z,6.97
2019-03-06T05:50:08.295Z,6.91
2019-03-06T05:54:13.420Z,6.95
2019-03-06T05:58:18.562Z,6.97
2019-03-06T06:02:23.737Z,7.00
2019-03-06T06:06:29.063Z,7.02
2019-03-06T06:10:36.342Z,6.99
2019-03-06T06:14:43.076Z,7.00
2019-03-06T06:18:48.180Z,7.04
2019-03-06T06:23:12.342Z,7.08
2019-03-06T06:31:53.755Z,7.10
2019-03-06T06:35:58.954Z,7.10
2019-03-06T06:45:00.902Z,7.11
2019-03-06T06:49:06.023Z,7.18
2019-03-06T06:53:41.501Z,7.30
2019-03-06T06:58:31.266Z,7.31
2019-03-06T07:12:24.232Z,7.49
2019-03-06T07:16:48.331Z,7.49
2019-03-06T07:25:20.631Z,7.46
2019-03-06T07:29:47.927Z,7.48
2019-03-06T07:34:12.371Z,7.51
2019-03-06T07:38:36.589Z,7.65
2019-03-06T07:43:00.719Z,7.67
2019-03-06T07:47:24.809Z,7.64
2019-03-06T07:51:49.039Z,7.69
2019-03-06T07:56:11.222Z,7.71
2019-03-06T08:00:35.500Z,7.82
2019-03-06T08:04:59.886Z,7.88
2019-03-06T08:09:16.544Z,8.12
2019-03-06T08:13:40.859Z,8.27
2019-03-06T08:18:04.982Z,8.46
2019-03-06T08:22:36.451Z,8.58
2019-03-06T08:26:53.234Z,8.70
2019-03-06T08:35:36.509Z,8.62
2019-03-06T08:39:41.598Z,8.69
2019-03-06T08:43:47.022Z,8.65
2019-03-06T08:48:11.119Z,8.74
2019-03-06T08:52:35.155Z,8.85
2019-03-06T08:56:59.368Z,9.01
2019-03-06T09:01:35.032Z,9.18
2019-03-06T09:05:59.166Z,9.26
2019-03-06T09:10:15.603Z,9.35
2019-03-06T09:18:59.171Z,9.72
2019-03-06T09:28:07.824Z,10.46
2019-03-06T09:32:31.879Z,10.89
2019-03-06T09:41:19.059Z,11.10
2019-03-06T09:45:43.193Z,10.89
2019-03-06T09:50:08.942Z,11.04
2019-03-06T09:54:52.115Z,10.95
2019-03-06T09:59:15.155Z,11.11
2019-03-06T10:03:39.412Z,11.32
2019-03-06T10:08:05.128Z,11.33
2019-03-06T10:12:48.248Z,11.42
2019-03-06T10:17:12.327Z,11.53
2019-03-06T10:21:17.503Z,11.70
2019-03-06T10:25:29.782Z,11.74
2019-03-06T10:29:35.598Z,11.65
2019-03-06T10:33:40.663Z,11.54
2019-03-06T10:38:05.036Z,11.53
2019-03-06T10:42:10.189Z,11.51
2019-03-06T10:50:53.324Z,11.18
2019-03-06T10:54:58.558Z,11.25
2019-03-06T10:59:03.717Z,11.21
2019-03-06T11:07:46.588Z,11.51
2019-03-06T11:11:51.760Z,11.62
2019-03-06T11:15:58.556Z,11.48
2019-03-06T11:24:33.932Z,11.88
2019-03-06T11:28:50.240Z,11.97
2019-03-06T11:32:56.136Z,12.25
2019-03-06T11:37:01.210Z,11.89
2019-03-06T11:41:07.222Z,12.10
2019-03-06T11:45:52.309Z,12.11
2019-03-06T11:49:57.382Z,12.07
2019-03-06T11:54:02.507Z,12.22
2019-03-06T11:58:47.968Z,12.29
2019-03-06T12:03:32.528Z,12.07
2019-03-06T12:07:37.978Z,12.24
2019-03-06T12:11:54.643Z,12.18
2019-03-06T12:16:20.249Z,12.05
2019-03-06T12:20:25.450Z,12.15
2019-03-06T12:24:30.683Z,11.91
2019-03-06T12:28:35.787Z,12.00
2019-03-06T12:32:41.078Z,11.88
2019-03-06T12:36:46.173Z,11.80
2019-03-06T12:40:51.390Z,11.69
2019-03-06T12:44:56.464Z,11.89
2019-03-06T12:49:04.251Z,11.62
2019-03-06T12:53:28.945Z,11.57
2019-03-06T12:57:59.464Z,11.66
2019-03-06T13:02:19.083Z,11.64
2019-03-06T13:06:25.208Z,11.83
2019-03-06T13:15:18.102Z,11.71
2019-03-06T13:19:23.303Z,11.90
2019-03-06T13:23:28.432Z,11.93
2019-03-06T13:27:33.992Z,11.99
2019-03-06T13:31:39.273Z,12.02
2019-03-06T13:35:44.366Z,11.99
2019-03-06T13:39:51.088Z,11.97
2019-03-06T13:43:56.200Z,12.21
2019-03-06T13:48:01.434Z,12.15
2019-03-06T13:52:06.628Z,12.22
2019-03-06T13:56:51.911Z,12.16
2019-03-06T14:05:30.497Z,11.96
2019-03-06T14:09:35.623Z,12.06
2019-03-06T14:13:59.878Z,12.08
2019-03-06T14:18:24.371Z,12.11
2019-03-06T14:22:59.856Z,12.05
2019-03-06T14:31:44.014Z,11.89
2019-03-06T14:35:49.092Z,11.94
2019-03-06T14:39:55.932Z,12.13
2019-03-06T14:44:01.017Z,12.10
2019-03-06T14:48:17.790Z,12.13
2019-03-06T14:52:23.066Z,12.12
2019-03-06T14:56:48.789Z,12.11
2019-03-06T15:00:53.946Z,12.04
2019-03-06T15:04:59.180Z,12.15
2019-03-06T15:09:10.638Z,12.22
2019-03-06T15:13:16.612Z,12.17
2019-03-06T15:17:21.668Z,12.25
2019-03-06T15:21:26.762Z,12.21
2019-03-06T15:25:31.968Z,12.28
2019-03-06T15:29:37.067Z,12.20
2019-03-06T15:33:42.187Z,12.38
2019-03-06T15:37:47.536Z,12.43
2019-03-06T15:42:00.673Z,12.49
2019-03-06T15:46:13.640Z,12.66
2019-03-06T15:50:41.050Z,12.78
2019-03-06T15:54:46.127Z,12.85
2019-03-06T16:03:21.335Z,12.68
2019-03-06T16:07:46.088Z,12.82
2019-03-06T16:11:51.279Z,12.77
2019-03-06T16:20:52.222Z,12.74
2019-03-06T16:24:59.034Z,12.83
2019-03-06T16:29:04.116Z,12.74
2019-03-06T16:33:09.228Z,12.51
2019-03-06T16:37:14.728Z,12.30
2019-03-06T16:41:38.844Z,12.01
2019-03-06T16:46:05.364Z,11.93
2019-03-06T16:50:14.453Z,11.70
2019-03-06T16:54:38.019Z,11.54
2019-03-06T16:58:43.228Z,11.47
2019-03-06T17:16:19.787Z,11.03
2019-03-06T17:20:30.745Z,10.97
2019-03-06T17:24:36.057Z,11.05
2019-03-06T17:28:43.060Z,11.02
2019-03-06T17:33:07.833Z,11.12
2019-03-06T17:37:13.009Z,11.07
2019-03-06T17:41:18.421Z,11.05
2019-03-06T17:50:00.536Z,10.95
2019-03-06T17:54:05.747Z,11.02
2019-03-06T18:02:28.306Z,11.19
2019-03-06T18:06:33.752Z,11.11
2019-03-06T18:10:39.002Z,11.28
2019-03-06T18:14:44.607Z,11.20
2019-03-06T18:23:06.453Z,11.42
2019-03-06T18:27:11.587Z,11.40
2019-03-06T18:31:16.750Z,11.50
2019-03-06T18:35:40.682Z,11.45
2019-03-06T18:48:19.827Z,11.52
2019-03-06T18:52:25.071Z,11.38
2019-03-06T18:56:30.249Z,11.34
2019-03-06T19:00:35.419Z,11.34
2019-03-06T19:04:40.580Z,11.34
2019-03-06T19:13:44.056Z,11.25
2019-03-06T19:18:08.298Z,11.17
2019-03-06T19:22:19.649Z,11.16
2019-03-06T19:30:54.447Z,11.25
2019-03-06T19:34:59.628Z,11.27
2019-03-06T19:43:41.543Z,11.13
2019-03-06T19:48:06.068Z,10.97
2019-03-06T19:52:11.680Z,11.12
2019-03-06T19:56:35.880Z,11.06
2019-03-06T20:00:41.145Z,11.08
2019-03-06T20:04:46.331Z,11.00
2019-03-06T20:13:40.223Z,11.00
2019-03-06T20:17:45.397Z,10.80
2019-03-06T20:30:57.424Z,10.90
2019-03-06T20:35:02.572Z,10.84
2019-03-06T20:39:08.854Z,10.84
2019-03-06T20:43:15.671Z,10.93
2019-03-06T20:47:20.889Z,10.96
2019-03-06T20:51:26.029Z,11.05
2019-03-06T20:55:31.216Z,11.05
2019-03-06T20:59:36.678Z,11.05
2019-03-06T21:03:53.506Z,10.96
2019-03-06T21:07:58.655Z,11.08
2019-03-06T21:12:03.911Z,11.11
2019-03-06T21:16:09.155Z,11.24
2019-03-06T21:20:16.452Z,11.21
2019-03-06T21:24:40.745Z,11.25
2019-03-06T21:28:45.932Z,11.24
2019-03-06T21:33:10.147Z,11.25
2019-03-06T21:37:16.942Z,11.26
2019-03-06T21:41:22.159Z,11.24
2019-03-06T21:49:45.021Z,11.27
2019-03-06T21:53:50.487Z,11.34
2019-03-06T21:57:56.084Z,11.37
2019-03-06T22:02:01.297Z,11.51
2019-03-06T22:06:06.403Z,11.43
2019-03-06T22:10:11.553Z,11.41
2019-03-06T22:14:36.207Z,11.46
2019-03-06T22:18:41.413Z,11.33
2019-03-06T22:22:46.600Z,11.42
2019-03-06T22:26:52.394Z,11.45
2019-03-06T22:30:57.962Z,11.49
2019-03-06T22:35:03.404Z,11.51
2019-03-06T22:39:08.624Z,11.46
2019-03-06T22:43:25.522Z,11.54
2019-03-06T22:47:30.682Z,11.44
2019-03-06T22:51:35.857Z,11.58
2019-03-06T23:04:49.820Z,11.58
2019-03-06T23:08:55.013Z,11.54
2019-03-06T23:13:00.101Z,11.59
2019-03-06T23:17:05.301Z,11.50
2019-03-06T23:21:10.509Z,11.52
2019-03-06T23:25:18.093Z,11.52
2019-03-06T23:29:28.519Z,11.41
2019-03-06T23:33:33.603Z,11.29
2019-03-06T23:37:39.089Z,11.26
2019-03-06T23:46:32.113Z,11.30
2019-03-06T23:54:54.155Z,11.30
2019-03-06T23:58:59.376Z,11.28
